Time;durP1;ratioP1;P1;durP2;ratioP2;P2;SDS_P1;SDS_P2;PMS_P1;PMS_P2;Temp;Humidity;BMP_temperature;BMP_pressure;BME280_temperature;BME280_humidity;BME280_pressure;Samples;Min_cycle;Max_cycle;Signal;HPM_P1;HPM_P2
2022/06/03 00:02:20;;;;;;;14.77;6.82;;;;;;;;;;4977358;28;20117;-75
2022/06/03 00:04:46;;;;;;;19.45;6.50;;;;;;;;;;4975335;28;20476;-77
2022/06/03 00:07:28;;;;;;;16.65;6.35;;;;;;;;;;4975558;28;20055;-76
2022/06/03 00:10:14;;;;;;;13.60;6.53;;;;;;;;;;4975510;28;20429;-76
2022/06/03 00:12:49;;;;;;;13.00;6.05;;;;;;;;;;4974740;28;20022;-75
2022/06/03 00:15:26;;;;;;;16.85;6.07;;;;;;;;;;4974972;28;20535;-76
2022/06/03 00:18:16;;;;;;;17.85;6.47;;;;;;;;;;4977442;28;20035;-73
2022/06/03 00:20:58;;;;;;;16.58;6.32;;;;;;;;;;4974886;28;20039;-75
2022/06/03 00:23:33;;;;;;;17.73;6.57;;;;;;;;;;4974083;28;20098;-76
2022/06/03 00:26:19;;;;;;;15.10;6.05;;;;;;;;;;4974265;28;20034;-76
2022/06/03 00:29:04;;;;;;;15.23;6.05;;;;;;;;;;4967672;28;20042;-77
2022/06/03 00:31:48;;;;;;;11.75;5.97;;;;;;;;;;4974429;28;20113;-76
2022/06/03 00:34:13;;;;;;;15.88;5.72;;;;;;;;;;4957459;28;20046;-75
2022/06/03 00:36:45;;;;;;;12.18;5.55;;;;;;;;;;4974551;28;20023;-73
2022/06/03 00:39:28;;;;;;;18.58;5.75;;;;;;;;;;4993129;28;20018;-73
2022/06/03 00:41:57;;;;;;;10.65;5.88;;;;;;;;;;4998232;28;20051;-73
2022/06/03 00:44:26;;;;;;;15.23;6.13;;;;;;;;;;4981487;28;20034;-73
2022/06/03 00:47:13;;;;;;;16.00;6.40;;;;;;;;;;4997497;28;20077;-72
2022/06/03 00:49:39;;;;;;;14.63;6.13;;;;;;;;;;4958202;28;20054;-75
2022/06/03 00:52:12;;;;;;;15.13;6.88;;;;;;;;;;4999861;28;20043;-73
2022/06/03 00:54:45;;;;;;;14.98;7.10;;;;;;;;;;5001513;28;20037;-74
2022/06/03 00:57:31;;;;;;;17.70;6.50;;;;;;;;;;5001895;28;20010;-73
2022/06/03 01:00:09;;;;;;;12.48;6.28;;;;;;;;;;4995173;28;20058;-75
2022/06/03 01:02:50;;;;;;;16.08;7.07;;;;;;;;;;4985898;28;20034;-76
2022/06/03 01:05:43;;;;;;;14.45;6.25;;;;;;;;;;4986688;28;20023;-76
2022/06/03 01:08:13;;;;;;;19.52;7.07;;;;;;;;;;4989835;28;20027;-75
2022/06/03 01:10:56;;;;;;;13.13;6.25;;;;;;;;;;4989791;28;20023;-76
2022/06/03 01:13:30;;;;;;;15.32;6.22;;;;;;;;;;4990890;28;20035;-75
2022/06/03 01:15:59;;;;;;;12.05;5.85;;;;;;;;;;4992920;28;20117;-76
2022/06/03 01:18:25;;;;;;;14.10;6.57;;;;;;;;;;4985876;28;20035;-75
2022/06/03 01:21:09;;;;;;;14.60;6.32;;;;;;;;;;4979608;28;20428;-75
2022/06/03 01:23:54;;;;;;;14.32;7.18;;;;;;;;;;4983705;28;20081;-75
2022/06/03 01:29:31;;;;;;;10.50;5.90;;;;;;;;;;4978335;28;20034;-76
2022/06/03 01:32:06;;;;;;;12.03;6.17;;;;;;;;;;4981532;28;20027;-76
2022/06/03 01:34:39;;;;;;;11.45;6.00;;;;;;;;;;4978970;28;20760;-75
2022/06/03 01:37:19;;;;;;;14.05;6.57;;;;;;;;;;4977591;28;20023;-76
2022/06/03 01:40:13;;;;;;;11.32;5.82;;;;;;;;;;4984539;28;20062;-75
2022/06/03 01:42:46;;;;;;;15.27;6.00;;;;;;;;;;4993387;28;20050;-75
2022/06/03 01:45:35;;;;;;;13.33;6.23;;;;;;;;;;4986417;28;20026;-75
2022/06/03 01:48:06;;;;;;;11.27;5.70;;;;;;;;;;4981422;28;20546;-76
2022/06/03 01:50:33;;;;;;;11.30;5.95;;;;;;;;;;4989074;28;20027;-77
2022/06/03 01:53:18;;;;;;;12.63;5.90;;;;;;;;;;4977893;28;20386;-75
2022/06/03 01:55:44;;;;;;;11.25;5.63;;;;;;;;;;4975922;28;20045;-75
2022/06/03 01:58:13;;;;;;;12.00;5.88;;;;;;;;;;4976680;28;20022;-75
2022/06/03 02:00:41;;;;;;;11.13;5.95;;;;;;;;;;4975860;28;20031;-76
2022/06/03 02:03:26;;;;;;;10.93;5.60;;;;;;;;;;4974751;28;20105;-74
2022/06/03 02:06:12;;;;;;;12.73;5.93;;;;;;;;;;4975821;28;20500;-74
2022/06/03 02:08:48;;;;;;;11.45;5.90;;;;;;;;;;4976827;28;20034;-73
2022/06/03 02:11:27;;;;;;;9.55;4.80;;;;;;;;;;4976306;28;20083;-74
2022/06/03 02:14:07;;;;;;;10.27;5.53;;;;;;;;;;4975753;28;20035;-75
2022/06/03 02:16:51;;;;;;;12.95;6.43;;;;;;;;;;4977913;28;20031;-75
2022/06/03 02:19:40;;;;;;;16.77;6.45;;;;;;;;;;4986655;28;20026;-75
2022/06/03 02:22:25;;;;;;;13.38;6.43;;;;;;;;;;4989669;28;20038;-75
2022/06/03 02:24:54;;;;;;;13.13;6.30;;;;;;;;;;4995592;28;20026;-76
2022/06/03 02:27:46;;;;;;;11.98;6.88;;;;;;;;;;4995318;28;20077;-74
2022/06/03 02:30:27;;;;;;;11.48;6.45;;;;;;;;;;4998386;28;20152;-74
2022/06/03 02:33:02;;;;;;;16.88;7.22;;;;;;;;;;5008030;28;20026;-75
2022/06/03 02:35:31;;;;;;;17.90;6.50;;;;;;;;;;4994367;28;20033;-74
2022/06/03 02:38:09;;;;;;;8.43;5.88;;;;;;;;;;4995005;28;20092;-74
2022/06/03 02:40:42;;;;;;;16.40;7.15;;;;;;;;;;4994987;28;20108;-74
2022/06/03 02:43:35;;;;;;;14.45;6.25;;;;;;;;;;4994911;28;20399;-76
2022/06/03 02:46:20;;;;;;;12.50;6.10;;;;;;;;;;4994380;28;20034;-74
2022/06/03 02:49:02;;;;;;;10.20;5.95;;;;;;;;;;4994533;28;20064;-75
2022/06/03 02:51:46;;;;;;;9.13;5.20;;;;;;;;;;4994577;28;20027;-74
2022/06/03 02:54:21;;;;;;;12.57;5.95;;;;;;;;;;4994660;28;20041;-75
2022/06/03 02:57:05;;;;;;;11.63;5.28;;;;;;;;;;4994071;28;20486;-75
2022/06/03 02:59:43;;;;;;;8.63;4.93;;;;;;;;;;4994146;28;20077;-75
2022/06/03 03:02:28;;;;;;;11.02;5.07;;;;;;;;;;4994270;28;20077;-75
2022/06/03 03:05:03;;;;;;;10.38;5.32;;;;;;;;;;4994553;28;20041;-75
2022/06/03 03:07:29;;;;;;;11.27;5.00;;;;;;;;;;4994268;28;20019;-75
2022/06/03 03:10:03;;;;;;;11.38;5.30;;;;;;;;;;4994415;28;20033;-75
2022/06/03 03:12:52;;;;;;;9.77;5.40;;;;;;;;;;4994275;28;20030;-75
2022/06/03 03:15:30;;;;;;;9.27;5.03;;;;;;;;;;4978727;28;20036;-76
2022/06/03 03:18:15;;;;;;;10.70;5.60;;;;;;;;;;4996944;28;20492;-76
2022/06/03 03:20:53;;;;;;;9.50;5.75;;;;;;;;;;5006663;28;20030;-77
2022/06/03 03:23:22;;;;;;;11.27;6.10;;;;;;;;;;4988109;28;20030;-75
2022/06/03 03:25:48;;;;;;;14.10;5.30;;;;;;;;;;5000045;28;20046;-76
2022/06/03 03:28:20;;;;;;;11.23;5.55;;;;;;;;;;4998200;28;20060;-77
2022/06/03 03:30:46;;;;;;;11.68;5.80;;;;;;;;;;4995240;28;20026;-75
2022/06/03 03:33:21;;;;;;;12.23;5.80;;;;;;;;;;4996999;28;20502;-76
2022/06/03 03:35:58;;;;;;;10.05;5.13;;;;;;;;;;4994140;28;20080;-75
2022/06/03 03:38:24;;;;;;;9.52;4.97;;;;;;;;;;4994110;28;20034;-76
2022/06/03 03:40:50;;;;;;;9.85;5.53;;;;;;;;;;4994766;28;20097;-74
2022/06/03 03:43:35;;;;;;;9.82;5.32;;;;;;;;;;4995628;28;20034;-76
2022/06/03 03:46:20;;;;;;;7.85;4.80;;;;;;;;;;5000516;28;20026;-74
2022/06/03 03:49:04;;;;;;;10.32;5.22;;;;;;;;;;4997098;28;20483;-76
2022/06/03 03:51:49;;;;;;;11.60;5.33;;;;;;;;;;4979363;28;20090;-76
2022/06/03 03:54:14;;;;;;;;;;;;;;;;;;4997671;28;20038;-77
2022/06/03 03:56:59;;;;;;;9.18;5.10;;;;;;;;;;4996784;28;19960;-75
2022/06/03 03:59:43;;;;;;;8.00;5.35;;;;;;;;;;4997106;28;20534;-75
2022/06/03 04:02:25;;;;;;;7.97;5.35;;;;;;;;;;4994322;28;20037;-76
2022/06/03 04:04:58;;;;;;;10.02;5.35;;;;;;;;;;4976900;28;20027;-76
2022/06/03 04:07:24;;;;;;;11.20;5.13;;;;;;;;;;4993519;28;20480;-76
2022/06/03 04:09:59;;;;;;;11.20;5.65;;;;;;;;;;4993471;28;20033;-74
2022/06/03 04:12:44;;;;;;;9.90;5.40;;;;;;;;;;4993067;28;20060;-77
2022/06/03 04:15:29;;;;;;;11.77;5.55;;;;;;;;;;4993591;28;20060;-75
2022/06/03 04:18:13;;;;;;;11.07;6.15;;;;;;;;;;4993311;28;20034;-76
2022/06/03 04:20:57;;;;;;;12.25;6.50;;;;;;;;;;4993482;28;20475;-76
2022/06/03 04:23:34;;;;;;;16.67;6.13;;;;;;;;;;4993278;28;20125;-75
2022/06/03 04:26:00;;;;;;;12.02;6.20;;;;;;;;;;4993001;28;20026;-74
2022/06/03 04:28:35;;;;;;;12.90;7.05;;;;;;;;;;4994946;28;20026;-76
2022/06/03 04:31:21;;;;;;;17.58;7.85;;;;;;;;;;4992914;28;20511;-75
2022/06/03 04:33:54;;;;;;;12.13;6.20;;;;;;;;;;4993597;28;20027;-75
2022/06/03 04:36:34;;;;;;;16.30;7.22;;;;;;;;;;4993232;28;20406;-75
2022/06/03 04:39:21;;;;;;;16.65;7.68;;;;;;;;;;4993371;28;20479;-76
2022/06/03 04:42:06;;;;;;;13.90;7.10;;;;;;;;;;4993227;28;20026;-76
2022/06/03 04:44:51;;;;;;;12.13;7.00;;;;;;;;;;4975716;28;20023;-76
2022/06/03 04:47:17;;;;;;;14.70;7.28;;;;;;;;;;4993256;28;20035;-76
2022/06/03 04:50:15;;;;;;;18.33;7.63;;;;;;;;;;4975671;28;20089;-75
2022/06/03 04:53:00;;;;;;;13.32;7.15;;;;;;;;;;4992911;28;20030;-74
2022/06/03 04:55:45;;;;;;;18.15;7.75;;;;;;;;;;4975752;28;20593;-75
2022/06/03 04:58:26;;;;;;;14.90;7.00;;;;;;;;;;4993799;28;20023;-75
2022/06/03 05:01:07;;;;;;;14.38;7.18;;;;;;;;;;4993009;28;20073;-75
2022/06/03 05:03:52;;;;;;;18.20;8.32;;;;;;;;;;5000253;28;20031;-74
2022/06/03 05:06:21;;;;;;;15.82;7.97;;;;;;;;;;4999746;28;20027;-74
2022/06/03 05:09:05;;;;;;;18.05;9.38;;;;;;;;;;4997478;28;20033;-76
2022/06/03 05:11:46;;;;;;;17.10;8.75;;;;;;;;;;4998183;28;20388;-76
2022/06/03 05:14:31;;;;;;;15.20;9.02;;;;;;;;;;5001179;28;20030;-74
2022/06/03 05:16:57;;;;;;;;;;;;;;;;;;4996588;28;20027;-75
2022/06/03 05:19:32;;;;;;;19.88;10.77;;;;;;;;;;4997536;28;19913;-75
2022/06/03 05:21:58;;;;;;;;;;;;;;;;;;4978498;28;20544;-76
2022/06/03 05:24:42;;;;;;;22.52;11.25;;;;;;;;;;4996032;28;19937;-76
2022/06/03 05:27:27;;;;;;;26.40;10.77;;;;;;;;;;4994430;28;20442;-75
2022/06/03 05:30:05;;;;;;;26.35;10.98;;;;;;;;;;4995471;28;20114;-76
2022/06/03 05:32:40;;;;;;;19.00;10.98;;;;;;;;;;4996509;28;20392;-75
2022/06/03 05:35:12;;;;;;;24.52;12.85;;;;;;;;;;5001493;28;20057;-76
2022/06/03 05:37:44;;;;;;;16.80;10.40;;;;;;;;;;5000310;28;20041;-74
2022/06/03 05:40:29;;;;;;;21.60;10.13;;;;;;;;;;4999537;28;20030;-76
2022/06/03 05:43:19;;;;;;;24.17;9.77;;;;;;;;;;4998410;28;20038;-74
2022/06/03 05:45:45;;;;;;;27.83;10.65;;;;;;;;;;4982641;28;20038;-77
2022/06/03 05:48:18;;;;;;;24.58;12.80;;;;;;;;;;4997507;28;20042;-73
2022/06/03 05:50:44;;;;;;;19.50;11.23;;;;;;;;;;4999817;28;20126;-76
2022/06/03 05:53:29;;;;;;;23.40;11.27;;;;;;;;;;5001700;28;20424;-74
2022/06/03 05:56:07;;;;;;;23.75;13.02;;;;;;;;;;5002828;28;20481;-73
2022/06/03 05:58:48;;;;;;;24.30;11.80;;;;;;;;;;5000186;28;20030;-73
2022/06/03 06:01:14;;;;;;;20.67;11.52;;;;;;;;;;4997388;28;20027;-74
2022/06/03 06:03:49;;;;;;;20.80;10.55;;;;;;;;;;4995820;28;20376;-74
2022/06/03 06:06:28;;;;;;;21.83;11.23;;;;;;;;;;4997300;28;20038;-74
2022/06/03 06:08:54;;;;;;;22.80;8.38;;;;;;;;;;4999267;28;20388;-74
2022/06/03 06:11:25;;;;;;;14.07;6.45;;;;;;;;;;4996467;28;20026;-76
2022/06/03 06:13:50;;;;;;;15.07;4.63;;;;;;;;;;4995590;28;20033;-76
2022/06/03 06:16:35;;;;;;;11.80;4.97;;;;;;;;;;5005136;28;20030;-78
2022/06/03 06:19:04;;;;;;;10.32;4.90;;;;;;;;;;5001343;28;20081;-76
2022/06/03 06:21:37;;;;;;;14.65;6.50;;;;;;;;;;4980387;28;20113;-75
2022/06/03 06:24:09;;;;;;;14.50;7.55;;;;;;;;;;4976994;28;20030;-76
2022/06/03 06:26:54;;;;;;;19.13;8.48;;;;;;;;;;4975841;28;20026;-77
2022/06/03 06:29:20;;;;;;;19.80;7.68;;;;;;;;;;4976701;28;20027;-75
2022/06/03 06:31:51;;;;;;;18.38;6.75;;;;;;;;;;4976837;28;20030;-77
2022/06/03 06:34:33;;;;;;;16.40;6.25;;;;;;;;;;4981311;28;20476;-75
2022/06/03 06:37:17;;;;;;;11.88;5.72;;;;;;;;;;4971165;28;20492;-76
2022/06/03 06:39:55;;;;;;;18.00;6.82;;;;;;;;;;4985264;28;20031;-74
2022/06/03 06:42:33;;;;;;;15.30;6.50;;;;;;;;;;4983068;28;20088;-75
2022/06/03 06:45:16;;;;;;;18.80;7.00;;;;;;;;;;4982792;28;20026;-76
2022/06/03 06:47:51;;;;;;;9.68;5.60;;;;;;;;;;4980988;28;20555;-75
2022/06/03 06:50:21;;;;;;;12.30;5.45;;;;;;;;;;4976311;28;20086;-76
2022/06/03 06:52:53;;;;;;;15.65;5.57;;;;;;;;;;4958200;28;20531;-76
2022/06/03 06:55:21;;;;;;;16.10;5.40;;;;;;;;;;4975176;28;20038;-77
2022/06/03 06:57:52;;;;;;;13.82;6.40;;;;;;;;;;4975531;28;20030;-76
2022/06/03 07:00:18;;;;;;;15.68;6.15;;;;;;;;;;4975915;28;20492;-75
2022/06/03 07:02:47;;;;;;;17.60;7.40;;;;;;;;;;4977635;28;20130;-77
2022/06/03 07:05:28;;;;;;;17.00;5.95;;;;;;;;;;4979430;28;20031;-75
2022/06/03 07:07:57;;;;;;;18.17;6.43;;;;;;;;;;4975259;28;20015;-75
2022/06/03 07:10:23;;;;;;;17.40;6.00;;;;;;;;;;4975346;28;20049;-75
2022/06/03 07:12:52;;;;;;;14.27;6.47;;;;;;;;;;4958413;28;20109;-75
2022/06/03 07:15:21;;;;;;;16.40;5.20;;;;;;;;;;4975701;28;20030;-77
2022/06/03 07:20:46;;;;;;;16.40;4.97;;;;;;;;;;4975664;28;20042;-77
2022/06/03 07:23:31;;;;;;;11.00;4.47;;;;;;;;;;4975880;28;20054;-76
2022/06/03 07:26:05;;;;;;;13.05;4.30;;;;;;;;;;4974936;28;20023;-77
2022/06/03 07:28:49;;;;;;;16.60;5.55;;;;;;;;;;4957878;28;20113;-76
2022/06/03 07:31:26;;;;;;;20.30;5.60;;;;;;;;;;4958343;28;20050;-77
2022/06/03 07:34:15;;;;;;;12.35;4.55;;;;;;;;;;4975239;28;20034;-75
2022/06/03 07:36:45;;;;;;;12.68;5.50;;;;;;;;;;4958645;28;20475;-75
2022/06/03 07:39:13;;;;;;;18.17;5.13;;;;;;;;;;4975105;28;20030;-76
2022/06/03 07:41:42;;;;;;;11.88;5.00;;;;;;;;;;4975318;28;20026;-76
2022/06/03 07:44:16;;;;;;;16.02;4.30;;;;;;;;;;4975574;28;20031;-78
2022/06/03 07:46:52;;;;;;;12.82;4.50;;;;;;;;;;4974520;28;20074;-76
2022/06/03 07:49:21;;;;;;;10.38;4.18;;;;;;;;;;4974709;28;20023;-76
2022/06/03 07:51:48;;;;;;;18.88;5.18;;;;;;;;;;4974967;28;20022;-76
2022/06/03 07:54:26;;;;;;;12.00;3.72;;;;;;;;;;4975313;28;20042;-77
2022/06/03 07:56:59;;;;;;;16.80;4.07;;;;;;;;;;4976636;28;20436;-79
2022/06/03 07:59:25;;;;;;;10.45;3.10;;;;;;;;;;4976205;28;20030;-75
2022/06/03 08:01:59;;;;;;;10.88;3.45;;;;;;;;;;4978195;28;20119;-77
2022/06/03 08:04:26;;;;;;;13.85;3.90;;;;;;;;;;4975221;28;20027;-78
2022/06/03 08:12:29;;;;;;;;;;;;;;;;;;4975329;28;20046;-76
2022/06/03 08:14:55;;;;;;;13.10;3.25;;;;;;;;;;4975194;28;19910;-76
2022/06/03 08:17:23;;;;;;;7.80;3.00;;;;;;;;;;4976101;28;20114;-76
2022/06/03 08:19:50;;;;;;;13.40;4.13;;;;;;;;;;4976310;28;20436;-77
2022/06/03 08:22:17;;;;;;;9.35;4.05;;;;;;;;;;4976812;28;20042;-77
2022/06/03 08:24:48;;;;;;;7.57;3.20;;;;;;;;;;4981376;28;20592;-76
2022/06/03 08:27:16;;;;;;;7.15;3.38;;;;;;;;;;4980528;28;20027;-76
2022/06/03 08:29:44;;;;;;;10.52;3.05;;;;;;;;;;4977656;28;20019;-76
2022/06/03 08:32:14;;;;;;;12.18;2.40;;;;;;;;;;4974541;28;20065;-78
2022/06/03 08:34:43;;;;;;;9.73;2.58;;;;;;;;;;4974296;28;20112;-78
2022/06/03 08:37:13;;;;;;;6.30;2.47;;;;;;;;;;4974374;28;20040;-75
2022/06/03 08:39:40;;;;;;;7.90;3.00;;;;;;;;;;4974763;28;20391;-76
2022/06/03 08:42:11;;;;;;;9.45;3.25;;;;;;;;;;4974821;28;20062;-78
2022/06/03 08:44:43;;;;;;;10.15;2.92;;;;;;;;;;4975011;28;20035;-75
2022/06/03 08:47:15;;;;;;;13.30;2.80;;;;;;;;;;4974199;28;20026;-76
2022/06/03 08:49:51;;;;;;;10.70;2.97;;;;;;;;;;4974100;28;20031;-77
2022/06/03 08:52:21;;;;;;;18.88;4.53;;;;;;;;;;4955478;28;20089;-77
2022/06/03 08:54:52;;;;;;;11.15;2.70;;;;;;;;;;4974627;28;20403;-75
2022/06/03 08:57:21;;;;;;;14.45;2.40;;;;;;;;;;4973623;28;20512;-75
2022/06/03 08:59:53;;;;;;;7.18;2.40;;;;;;;;;;4976148;28;20106;-76
2022/06/03 09:02:23;;;;;;;12.43;3.67;;;;;;;;;;4977403;28;20034;-76
2022/06/03 09:04:56;;;;;;;9.50;3.22;;;;;;;;;;4963305;28;20057;-76
2022/06/03 09:07:34;;;;;;;9.25;3.17;;;;;;;;;;4975967;28;20384;-76
2022/06/03 09:10:09;;;;;;;16.33;3.13;;;;;;;;;;4975338;28;20033;-77
2022/06/03 09:12:35;;;;;;;8.05;2.80;;;;;;;;;;4976898;28;20101;-74
2022/06/03 09:15:03;;;;;;;8.07;2.78;;;;;;;;;;4977832;28;20415;-76
2022/06/03 09:17:51;;;;;;;13.48;6.13;;;;;;;;;;4977951;28;20155;-74
2022/06/03 09:20:30;;;;;;;18.42;6.13;;;;;;;;;;4982634;28;20027;-77
2022/06/03 09:23:00;;;;;;;10.23;4.03;;;;;;;;;;4990049;28;20031;-76
2022/06/03 09:25:26;;;;;;;9.50;3.28;;;;;;;;;;4995649;28;20041;-76
2022/06/03 09:27:53;;;;;;;10.02;3.15;;;;;;;;;;4992347;28;20119;-76
2022/06/03 09:30:26;;;;;;;15.15;3.58;;;;;;;;;;4988862;28;20019;-74
2022/06/03 09:32:52;;;;;;;7.68;2.97;;;;;;;;;;4987619;28;20037;-76
2022/06/03 09:35:19;;;;;;;8.77;2.55;;;;;;;;;;4978222;28;20031;-77
2022/06/03 09:37:47;;;;;;;12.10;2.92;;;;;;;;;;4979115;28;20061;-76
2022/06/03 09:40:15;;;;;;;8.88;2.47;;;;;;;;;;4982452;28;20027;-77
2022/06/03 09:42:45;;;;;;;13.98;5.13;;;;;;;;;;4984241;28;20061;-76
2022/06/03 09:45:16;;;;;;;19.00;10.10;;;;;;;;;;4979142;28;20022;-76
2022/06/03 09:47:43;;;;;;;11.48;3.25;;;;;;;;;;4963519;28;20392;-75
2022/06/03 09:50:09;;;;;;;7.55;2.60;;;;;;;;;;4977328;28;20026;-75
2022/06/03 09:52:35;;;;;;;6.80;2.65;;;;;;;;;;4978667;28;20624;-75
2022/06/03 09:55:06;;;;;;;9.13;2.47;;;;;;;;;;4978166;28;20086;-75
2022/06/03 09:57:36;;;;;;;11.40;2.30;;;;;;;;;;4977607;28;20031;-76
2022/06/03 10:00:08;;;;;;;13.38;7.65;;;;;;;;;;4977318;28;20523;-76
2022/06/03 10:02:34;;;;;;;6.90;2.70;;;;;;;;;;4977030;28;20333;-78
2022/06/03 10:05:00;;;;;;;8.75;2.30;;;;;;;;;;4977142;28;20027;-77
2022/06/03 10:07:26;;;;;;;8.68;3.05;;;;;;;;;;4976271;28;20113;-76
2022/06/03 10:12:56;;;;;;;7.88;1.98;;;;;;;;;;4976696;28;20070;-76
2022/06/03 10:15:42;;;;;;;8.90;2.00;;;;;;;;;;4976719;28;20030;-76
2022/06/03 10:18:18;;;;;;;5.55;1.75;;;;;;;;;;4976581;28;20030;-77
2022/06/03 10:20:44;;;;;;;11.50;2.40;;;;;;;;;;4977973;28;20148;-75
2022/06/03 10:23:11;;;;;;;6.90;1.92;;;;;;;;;;4975627;28;20084;-76
2022/06/03 10:25:38;;;;;;;4.30;1.83;;;;;;;;;;4967044;28;20062;-76
2022/06/03 10:28:06;;;;;;;6.60;1.70;;;;;;;;;;4962589;28;20114;-77
2022/06/03 10:30:33;;;;;;;4.68;1.60;;;;;;;;;;4976445;28;20029;-76
2022/06/03 10:32:59;;;;;;;4.03;1.23;;;;;;;;;;4977093;28;20074;-77
2022/06/03 10:35:31;;;;;;;3.10;1.40;;;;;;;;;;4977468;28;20074;-76
2022/06/03 10:37:59;;;;;;;7.40;2.00;;;;;;;;;;4958956;28;20535;-76
2022/06/03 10:40:26;;;;;;;8.02;4.68;;;;;;;;;;4977424;28;20031;-77
2022/06/03 10:42:54;;;;;;;8.30;2.45;;;;;;;;;;4975377;28;20035;-76
2022/06/03 10:45:26;;;;;;;4.60;2.05;;;;;;;;;;4978083;28;20046;-77
2022/06/03 10:47:52;;;;;;;5.18;1.95;;;;;;;;;;4982114;28;20019;-76
2022/06/03 10:50:26;;;;;;;4.38;1.88;;;;;;;;;;4975847;28;20107;-76
2022/06/03 11:01:26;;;;;;;6.07;1.60;;;;;;;;;;4979483;28;20510;-77
2022/06/03 11:03:53;;;;;;;4.93;2.25;;;;;;;;;;4996985;28;20050;-79
2022/06/03 11:06:22;;;;;;;5.93;1.80;;;;;;;;;;4996615;28;20299;-76
2022/06/03 11:08:59;;;;;;;7.32;1.40;;;;;;;;;;4997335;28;20038;-78
2022/06/03 11:11:44;;;;;;;6.43;1.33;;;;;;;;;;4980174;28;20070;-75
2022/06/03 11:14:23;;;;;;;3.38;1.65;;;;;;;;;;4985057;28;20449;-77
2022/06/03 11:16:50;;;;;;;4.85;1.33;;;;;;;;;;4976573;28;20026;-77
2022/06/03 11:19:17;;;;;;;4.85;1.00;;;;;;;;;;4976217;28;20034;-76
2022/06/03 11:21:43;;;;;;;4.78;1.27;;;;;;;;;;4977091;28;20053;-76
2022/06/03 11:24:09;;;;;;;5.43;1.40;;;;;;;;;;4977335;28;20035;-77
2022/06/03 11:26:37;;;;;;;6.63;4.40;;;;;;;;;;4982092;28;20027;-75
2022/06/03 11:29:12;;;;;;;5.35;1.35;;;;;;;;;;4963856;28;20033;-75
2022/06/03 11:31:41;;;;;;;5.43;1.45;;;;;;;;;;4979959;28;20035;-76
2022/06/03 11:34:12;;;;;;;3.53;1.08;;;;;;;;;;4976498;28;20189;-75
2022/06/03 11:36:38;;;;;;;3.00;1.45;;;;;;;;;;4975728;28;20027;-75
2022/06/03 11:39:09;;;;;;;4.85;1.80;;;;;;;;;;4975006;28;20030;-75
2022/06/03 11:44:18;;;;;;;4.55;2.15;;;;;;;;;;5077657;28;20764;-76
2022/06/03 11:46:49;;;;;;;12.02;5.70;;;;;;;;;;5071760;28;20056;-74
2022/06/03 11:49:17;;;;;;;8.00;2.72;;;;;;;;;;5074836;28;20029;-77
2022/06/03 11:51:45;;;;;;;8.15;5.22;;;;;;;;;;5074900;28;20032;-76
2022/06/03 11:54:13;;;;;;;5.50;1.83;;;;;;;;;;5076086;28;20053;-76
2022/06/03 11:56:41;;;;;;;10.07;1.45;;;;;;;;;;5077789;28;20024;-77
2022/06/03 11:59:13;;;;;;;3.13;1.10;;;;;;;;;;5076504;28;20039;-76
2022/06/03 12:01:45;;;;;;;7.75;2.20;;;;;;;;;;5074490;28;20076;-77
2022/06/03 12:04:31;;;;;;;6.20;1.75;;;;;;;;;;5072062;28;20068;-76
2022/06/03 12:07:04;;;;;;;6.88;1.77;;;;;;;;;;5069924;28;20036;-77
2022/06/03 12:09:36;;;;;;;6.50;1.73;;;;;;;;;;5071216;28;20025;-75
2022/06/03 12:15:19;;;;;;;3.78;1.60;;;;;;;;;;5078125;28;20103;-75
2022/06/03 12:17:47;;;;;;;5.57;1.48;;;;;;;;;;5086498;28;20028;-77
2022/06/03 12:20:34;;;;;;;4.22;1.35;;;;;;;;;;5069725;28;20025;-77
2022/06/03 12:23:12;;;;;;;4.68;1.55;;;;;;;;;;5072243;28;20059;-78
2022/06/03 12:25:41;;;;;;;3.38;1.38;;;;;;;;;;5075828;28;20032;-77
2022/06/03 12:28:16;;;;;;;6.03;1.73;;;;;;;;;;5070648;28;20025;-77
2022/06/03 12:30:53;;;;;;;3.55;1.70;;;;;;;;;;5069894;28;20025;-78
2022/06/03 12:33:22;;;;;;;7.00;1.85;;;;;;;;;;5070233;28;20021;-75
2022/06/03 12:35:54;;;;;;;3.97;1.83;;;;;;;;;;5070636;28;20044;-77
2022/06/03 12:38:20;;;;;;;7.47;1.73;;;;;;;;;;5070324;28;20506;-75
2022/06/03 12:40:47;;;;;;;3.85;1.55;;;;;;;;;;5069780;28;20035;-77
2022/06/03 12:43:32;;;;;;;3.58;1.10;;;;;;;;;;5067805;28;20040;-75
2022/06/03 12:46:08;;;;;;;4.43;1.95;;;;;;;;;;5074898;28;20021;-75
2022/06/03 12:48:35;;;;;;;6.25;2.95;;;;;;;;;;5070274;28;20084;-77
2022/06/03 12:51:12;;;;;;;4.75;1.55;;;;;;;;;;5069708;28;20028;-76
2022/06/03 12:53:41;;;;;;;7.20;2.17;;;;;;;;;;5067421;28;20089;-76
2022/06/03 12:56:09;;;;;;;4.60;1.65;;;;;;;;;;5055770;28;20060;-78
2022/06/03 12:58:44;;;;;;;7.78;1.88;;;;;;;;;;5056397;28;20111;-75
2022/06/03 13:01:11;;;;;;;7.57;2.25;;;;;;;;;;5055570;28;20148;-78
2022/06/03 13:03:38;;;;;;;4.05;1.52;;;;;;;;;;5056032;28;20482;-76
2022/06/03 13:06:08;;;;;;;3.92;1.30;;;;;;;;;;5054870;28;20025;-78
2022/06/03 13:08:34;;;;;;;2.58;1.45;;;;;;;;;;5058213;28;20375;-77
2022/06/03 13:11:02;;;;;;;3.95;1.38;;;;;;;;;;5058234;28;20091;-75
2022/06/03 13:13:29;;;;;;;8.10;1.45;;;;;;;;;;5055996;28;20036;-76
2022/06/03 13:16:15;;;;;;;4.90;1.65;;;;;;;;;;5072393;28;20027;-76
2022/06/03 13:18:43;;;;;;;6.80;1.42;;;;;;;;;;5067629;28;20040;-77
2022/06/03 13:21:09;;;;;;;6.07;2.33;;;;;;;;;;5055292;28;20043;-76
2022/06/03 13:23:38;;;;;;;5.15;2.05;;;;;;;;;;5053527;28;20112;-76
2022/06/03 13:26:22;;;;;;;5.30;1.83;;;;;;;;;;5053105;28;20482;-76
2022/06/03 13:28:50;;;;;;;13.93;3.40;;;;;;;;;;5056984;28;20032;-76
2022/06/03 13:31:23;;;;;;;4.53;2.60;;;;;;;;;;5055062;28;20476;-76
2022/06/03 13:34:10;;;;;;;3.45;1.70;;;;;;;;;;5054361;28;20032;-75
2022/06/03 13:36:40;;;;;;;3.72;1.63;;;;;;;;;;5043205;28;20041;-76
2022/06/03 13:39:08;;;;;;;6.18;2.30;;;;;;;;;;5055266;28;20028;-76
2022/06/03 13:44:36;;;;;;;3.47;1.35;;;;;;;;;;5067662;28;20102;-77
2022/06/03 13:47:05;;;;;;;3.30;1.73;;;;;;;;;;5055138;28;20053;-76
2022/06/03 13:49:31;;;;;;;6.47;3.92;;;;;;;;;;5054513;28;20108;-75
2022/06/03 13:52:03;;;;;;;3.38;1.50;;;;;;;;;;5054642;28;20481;-75
2022/06/03 13:54:29;;;;;;;8.02;2.08;;;;;;;;;;5054942;28;20666;-76
2022/06/03 13:57:21;;;;;;;4.35;1.65;;;;;;;;;;5054279;28;20033;-75
2022/06/03 13:59:47;;;;;;;3.70;1.52;;;;;;;;;;5038074;28;20450;-76
2022/06/03 14:02:32;;;;;;;2.95;1.30;;;;;;;;;;5054352;28;20029;-76
2022/06/03 14:04:58;;;;;;;4.85;1.67;;;;;;;;;;5054307;28;20098;-77
2022/06/03 14:07:27;;;;;;;4.85;2.47;;;;;;;;;;5053302;28;20474;-75
2022/06/03 14:09:54;;;;;;;2.55;1.00;;;;;;;;;;5054574;28;20035;-75
2022/06/03 14:12:36;;;;;;;4.15;1.80;;;;;;;;;;5054445;28;20040;-75
2022/06/03 14:15:07;;;;;;;3.50;1.45;;;;;;;;;;5057947;28;20107;-77
2022/06/03 14:17:48;;;;;;;4.57;1.33;;;;;;;;;;5055293;28;20035;-75
2022/06/03 14:20:21;;;;;;;5.32;2.30;;;;;;;;;;5054633;28;20482;-76
2022/06/03 14:22:47;;;;;;;4.78;2.05;;;;;;;;;;5054641;28;20158;-77
2022/06/03 14:25:13;;;;;;;3.75;1.67;;;;;;;;;;5053783;28;20079;-76
2022/06/03 14:27:55;;;;;;;4.10;1.50;;;;;;;;;;5054134;28;20430;-75
2022/06/03 14:30:24;;;;;;;7.18;1.42;;;;;;;;;;5054285;28;20013;-75
2022/06/03 14:32:52;;;;;;;5.32;1.40;;;;;;;;;;5054094;28;20049;-76
2022/06/03 14:35:20;;;;;;;5.97;1.42;;;;;;;;;;5053619;28;20262;-76
2022/06/03 14:37:55;;;;;;;8.85;5.47;;;;;;;;;;5052612;28;20036;-77
2022/06/03 14:40:29;;;;;;;5.93;1.25;;;;;;;;;;5053940;28;20380;-75
2022/06/03 14:42:56;;;;;;;3.17;1.13;;;;;;;;;;5055204;28;20427;-77
2022/06/03 14:45:24;;;;;;;2.88;1.50;;;;;;;;;;5054839;28;20032;-75
2022/06/03 14:47:53;;;;;;;5.95;2.72;;;;;;;;;;5055180;28;20555;-76
2022/06/03 14:50:30;;;;;;;3.65;1.17;;;;;;;;;;5055200;28;20032;-76
2022/06/03 14:53:05;;;;;;;4.85;1.70;;;;;;;;;;5056824;28;20040;-76
2022/06/03 14:55:34;;;;;;;5.57;2.10;;;;;;;;;;5057679;28;20059;-77
2022/06/03 14:58:03;;;;;;;25.42;11.80;;;;;;;;;;5058774;28;20104;-76
2022/06/03 15:00:43;;;;;;;6.07;1.60;;;;;;;;;;5060296;28;20059;-74
2022/06/03 15:03:20;;;;;;;2.85;1.48;;;;;;;;;;5075005;28;20013;-72
2022/06/03 15:05:50;;;;;;;4.72;1.40;;;;;;;;;;5075989;28;20017;-75
2022/06/03 15:08:19;;;;;;;4.13;1.27;;;;;;;;;;5075050;28;20079;-76
2022/06/03 15:10:55;;;;;;;2.92;1.30;;;;;;;;;;5073170;28;20025;-76
2022/06/03 15:13:25;;;;;;;4.05;1.20;;;;;;;;;;5075718;28;20021;-75
2022/06/03 15:15:51;;;;;;;4.13;1.98;;;;;;;;;;5075373;28;20059;-76
2022/06/03 15:18:18;;;;;;;2.38;1.20;;;;;;;;;;5057667;28;20037;-76
2022/06/03 15:21:12;;;;;;;3.75;1.27;;;;;;;;;;5055752;28;20025;-76
2022/06/03 15:23:39;;;;;;;3.05;1.75;;;;;;;;;;5055311;28;20383;-75
2022/06/03 15:26:07;;;;;;;1.98;0.82;;;;;;;;;;5061891;28;20080;-74
2022/06/03 15:28:34;;;;;;;3.60;1.30;;;;;;;;;;5065570;28;20021;-76
2022/06/03 15:31:01;;;;;;;5.18;2.22;;;;;;;;;;5065466;28;20402;-76
2022/06/03 15:33:34;;;;;;;14.05;9.23;;;;;;;;;;5053722;28;20037;-76
2022/06/03 15:36:01;;;;;;;4.97;1.25;;;;;;;;;;5055650;28;20039;-77
2022/06/03 15:38:31;;;;;;;3.00;0.95;;;;;;;;;;5056395;28;20059;-76
2022/06/03 15:40:59;;;;;;;3.15;1.20;;;;;;;;;;5057184;28;20116;-75
2022/06/03 15:43:27;;;;;;;4.63;1.40;;;;;;;;;;5057181;28;20029;-74
2022/06/03 15:45:54;;;;;;;4.07;1.70;;;;;;;;;;5061542;28;20024;-76
2022/06/03 15:48:25;;;;;;;7.90;1.20;;;;;;;;;;5063145;28;20104;-75